BIQ weather

Biarritz-Anglet-Bayonne Airport
Biarritz/Anglet/Bayonne, Nouvelle-Aquitaine, France

Public forecast

Using degrees Celsius for public forecast. Weather courtesy of forecast.io.

Current aviation weather report (METAR) for Biarritz-Anglet-Bayonne Airport

Retrieved 2019/11/14 07:30 UTC (25 minutes ago):

LFBZ 140730Z AUTO 22008KT 150V260 9999 SCT031/// BKN038/// BKN100/// ///TCU 07/05 Q1001 TEMPO VRB15G30KT 4000 SHRA FEW025CB BKN030TCU

Aviation forecast (TAF) for Biarritz-Anglet-Bayonne Airport

Retrieved 2019/11/14 06:21 UTC (2 hours ago):

TAF LFBZ 140500Z 1406/1506 26010KT 9999 BKN030 TEMPO 1406/1407 24015G25KT PROB40 TEMPO 1406/1411 VRB15G30KT 4000 SHRA BKN030TCU BECMG 1413/1415 10008KT TEMPO 1416/1506 VRB15G25KT 3000 SHRA BKN010 BKN020TCU